sensor_id;sensor_type;location;lat;lon;timestamp;pressure;altitude;pressure_sealevel;temperature;humidity
40908;BME280;51055;59.436;24.778;2023-11-21T00:01:36;101803.13;;;0.21;85.74
40908;BME280;51055;59.436;24.778;2023-11-21T00:04:04;101805.75;;;0.20;85.66
40908;BME280;51055;59.436;24.778;2023-11-21T00:06:32;101811.88;;;0.17;85.79
40908;BME280;51055;59.436;24.778;2023-11-21T00:08:59;101810.09;;;0.21;85.80
40908;BME280;51055;59.436;24.778;2023-11-21T00:11:27;101811.03;;;0.17;86.61
40908;BME280;51055;59.436;24.778;2023-11-21T00:13:54;101811.06;;;0.15;86.41
40908;BME280;51055;59.436;24.778;2023-11-21T00:16:22;101815.41;;;0.16;87.36
40908;BME280;51055;59.436;24.778;2023-11-21T00:18:51;101815.50;;;0.10;88.05
40908;BME280;51055;59.436;24.778;2023-11-21T00:21:18;101816.25;;;0.17;88.34
40908;BME280;51055;59.436;24.778;2023-11-21T00:23:46;101824.94;;;0.17;88.13
40908;BME280;51055;59.436;24.778;2023-11-21T00:26:13;101820.63;;;0.16;90.04
40908;BME280;51055;59.436;24.778;2023-11-21T00:28:41;101817.03;;;0.22;90.18
40908;BME280;51055;59.436;24.778;2023-11-21T00:31:09;101821.31;;;0.24;90.41
40908;BME280;51055;59.436;24.778;2023-11-21T00:33:36;101821.38;;;0.23;90.40
40908;BME280;51055;59.436;24.778;2023-11-21T00:36:04;101816.97;;;0.23;91.38
40908;BME280;51055;59.436;24.778;2023-11-21T00:38:36;101820.63;;;0.16;91.54
40908;BME280;51055;59.436;24.778;2023-11-21T00:41:07;101823.91;;;0.26;91.98
40908;BME280;51055;59.436;24.778;2023-11-21T00:43:34;101816.09;;;0.26;92.97
40908;BME280;51055;59.436;24.778;2023-11-21T00:46:05;101819.50;;;0.28;93.99
40908;BME280;51055;59.436;24.778;2023-11-21T00:48:34;101821.06;;;0.38;94.80
40908;BME280;51055;59.436;24.778;2023-11-21T00:51:02;101819.13;;;0.47;98.27
40908;BME280;51055;59.436;24.778;2023-11-21T00:53:29;101816.34;;;0.55;100.00
40908;BME280;51055;59.436;24.778;2023-11-21T00:55:57;101821.41;;;0.63;100.00
40908;BME280;51055;59.436;24.778;2023-11-21T00:58:25;101822.25;;;0.63;100.00
40908;BME280;51055;59.436;24.778;2023-11-21T01:00:52;101820.50;;;0.64;100.00
40908;BME280;51055;59.436;24.778;2023-11-21T01:03:20;101816.22;;;0.61;100.00
40908;BME280;51055;59.436;24.778;2023-11-21T01:05:48;101813.63;;;0.61;100.00
40908;BME280;51055;59.436;24.778;2023-11-21T01:08:17;101815.34;;;0.61;100.00
40908;BME280;51055;59.436;24.778;2023-11-21T01:10:44;101819.66;;;0.63;100.00
40908;BME280;51055;59.436;24.778;2023-11-21T01:13:13;101817.94;;;0.62;100.00
40908;BME280;51055;59.436;24.778;2023-11-21T01:15:42;101824.00;;;0.64;100.00
40908;BME280;51055;59.436;24.778;2023-11-21T01:18:10;101819.63;;;0.65;100.00
40908;BME280;51055;59.436;24.778;2023-11-21T01:20:38;101823.09;;;0.65;100.00
40908;BME280;51055;59.436;24.778;2023-11-21T01:23:05;101821.31;;;0.66;100.00
40908;BME280;51055;59.436;24.778;2023-11-21T01:25:32;101823.09;;;0.65;100.00
40908;BME280;51055;59.436;24.778;2023-11-21T01:28:00;101822.19;;;0.66;100.00
40908;BME280;51055;59.436;24.778;2023-11-21T01:30:27;101820.38;;;0.70;100.00
40908;BME280;51055;59.436;24.778;2023-11-21T01:32:54;101824.78;;;0.68;100.00
40908;BME280;51055;59.436;24.778;2023-11-21T01:35:22;101823.91;;;0.69;100.00
40908;BME280;51055;59.436;24.778;2023-11-21T01:37:49;101825.66;;;0.68;100.00
40908;BME280;51055;59.436;24.778;2023-11-21T01:40:17;101829.06;;;0.70;100.00
40908;BME280;51055;59.436;24.778;2023-11-21T01:42:44;101821.22;;;0.72;100.00
40908;BME280;51055;59.436;24.778;2023-11-21T01:45:14;101833.38;;;0.73;100.00
40908;BME280;51055;59.436;24.778;2023-11-21T01:47:42;101835.13;;;0.72;100.00
40908;BME280;51055;59.436;24.778;2023-11-21T01:50:15;101838.56;;;0.74;100.00
40908;BME280;51055;59.436;24.778;2023-11-21T01:52:46;101839.38;;;0.76;100.00
40908;BME280;51055;59.436;24.778;2023-11-21T01:55:14;101837.63;;;0.78;100.00
40908;BME280;51055;59.436;24.778;2023-11-21T01:57:55;101850.63;;;0.80;100.00
40908;BME280;51055;59.436;24.778;2023-11-21T02:00:24;101842.91;;;0.75;100.00
40908;BME280;51055;59.436;24.778;2023-11-21T02:02:51;101839.44;;;0.73;100.00
40908;BME280;51055;59.436;24.778;2023-11-21T02:05:19;101836.91;;;0.72;100.00
40908;BME280;51055;59.436;24.778;2023-11-21T02:07:47;101842.13;;;0.72;100.00
40908;BME280;51055;59.436;24.778;2023-11-21T02:10:15;101846.41;;;0.73;100.00
40908;BME280;51055;59.436;24.778;2023-11-21T02:12:44;101843.78;;;0.74;100.00
40908;BME280;51055;59.436;24.778;2023-11-21T02:15:12;101848.16;;;0.74;100.00
40908;BME280;51055;59.436;24.778;2023-11-21T02:17:43;101848.94;;;0.77;100.00
40908;BME280;51055;59.436;24.778;2023-11-21T02:20:14;101849.75;;;0.81;100.00
40908;BME280;51055;59.436;24.778;2023-11-21T02:22:43;101846.28;;;0.79;100.00
40908;BME280;51055;59.436;24.778;2023-11-21T02:25:11;101848.09;;;0.77;100.00
40908;BME280;51055;59.436;24.778;2023-11-21T02:27:38;101852.44;;;0.76;100.00
40908;BME280;51055;59.436;24.778;2023-11-21T02:30:06;101853.34;;;0.75;100.00
40908;BME280;51055;59.436;24.778;2023-11-21T02:32:34;101854.16;;;0.77;100.00
40908;BME280;51055;59.436;24.778;2023-11-21T02:35:14;101848.97;;;0.76;100.00
40908;BME280;51055;59.436;24.778;2023-11-21T02:37:43;101852.38;;;0.79;100.00
40908;BME280;51055;59.436;24.778;2023-11-21T02:40:10;101856.72;;;0.79;100.00
40908;BME280;51055;59.436;24.778;2023-11-21T02:42:41;101848.03;;;0.80;100.00
40908;BME280;51055;59.436;24.778;2023-11-21T02:45:08;101854.13;;;0.79;100.00
40908;BME280;51055;59.436;24.778;2023-11-21T02:47:36;101852.38;;;0.79;100.00
40908;BME280;51055;59.436;24.778;2023-11-21T02:50:04;101857.59;;;0.81;100.00
40908;BME280;51055;59.436;24.778;2023-11-21T02:52:34;101855.84;;;0.80;100.00
40908;BME280;51055;59.436;24.778;2023-11-21T02:55:02;101855.13;;;0.73;100.00
40908;BME280;51055;59.436;24.778;2023-11-21T02:57:30;101861.28;;;0.69;100.00
40908;BME280;51055;59.436;24.778;2023-11-21T02:59:57;101857.06;;;0.64;100.00
40908;BME280;51055;59.436;24.778;2023-11-21T03:02:25;101865.78;;;0.63;100.00
40908;BME280;51055;59.436;24.778;2023-11-21T03:04:53;101874.53;;;0.60;100.00
40908;BME280;51055;59.436;24.778;2023-11-21T03:07:20;101870.25;;;0.56;100.00
40908;BME280;51055;59.436;24.778;2023-11-21T03:09:49;101868.50;;;0.58;100.00
40908;BME280;51055;59.436;24.778;2023-11-21T03:12:16;101877.22;;;0.57;100.00
40908;BME280;51055;59.436;24.778;2023-11-21T03:14:44;101873.81;;;0.53;100.00
40908;BME280;51055;59.436;24.778;2023-11-21T03:17:11;101864.25;;;0.52;100.00
40908;BME280;51055;59.436;24.778;2023-11-21T03:19:38;101875.47;;;0.56;100.00
40908;BME280;51055;59.436;24.778;2023-11-21T03:22:06;101877.16;;;0.60;100.00
40908;BME280;51055;59.436;24.778;2023-11-21T03:24:33;101876.41;;;0.55;100.00
40908;BME280;51055;59.436;24.778;2023-11-21T03:27:00;101880.75;;;0.55;100.00
40908;BME280;51055;59.436;24.778;2023-11-21T03:29:27;101877.41;;;0.48;100.00
40908;BME280;51055;59.436;24.778;2023-11-21T03:31:55;101869.69;;;0.42;100.00
40908;BME280;51055;59.436;24.778;2023-11-21T03:34:26;101864.56;;;0.37;100.00
40908;BME280;51055;59.436;24.778;2023-11-21T03:36:54;101871.59;;;0.34;100.00
40908;BME280;51055;59.436;24.778;2023-11-21T03:39:22;101873.38;;;0.30;100.00
40908;BME280;51055;59.436;24.778;2023-11-21T03:41:49;101875.19;;;0.27;100.00
40908;BME280;51055;59.436;24.778;2023-11-21T03:44:18;101875.25;;;0.24;100.00
40908;BME280;51055;59.436;24.778;2023-11-21T03:46:46;101882.28;;;0.20;100.00
40908;BME280;51055;59.436;24.778;2023-11-21T03:49:13;101884.00;;;0.20;100.00
40908;BME280;51055;59.436;24.778;2023-11-21T03:51:40;101884.88;;;0.22;100.00
40908;BME280;51055;59.436;24.778;2023-11-21T03:54:08;101878.78;;;0.23;100.00
40908;BME280;51055;59.436;24.778;2023-11-21T03:56:35;101892.59;;;0.26;100.00
40908;BME280;51055;59.436;24.778;2023-11-21T03:59:02;101889.09;;;0.29;100.00
40908;BME280;51055;59.436;24.778;2023-11-21T04:01:30;101888.13;;;0.33;100.00
40908;BME280;51055;59.436;24.778;2023-11-21T04:03:58;101882.88;;;0.34;100.00
40908;BME280;51055;59.436;24.778;2023-11-21T04:06:26;101882.81;;;0.37;100.00
40908;BME280;51055;59.436;24.778;2023-11-21T04:08:54;101890.66;;;0.37;100.00
40908;BME280;51055;59.436;24.778;2023-11-21T04:11:22;101890.78;;;0.31;100.00
40908;BME280;51055;59.436;24.778;2023-11-21T04:13:49;101898.66;;;0.27;100.00
40908;BME280;51055;59.436;24.778;2023-11-21T04:16:17;101895.19;;;0.26;100.00
40908;BME280;51055;59.436;24.778;2023-11-21T04:18:46;101901.34;;;0.24;100.00
40908;BME280;51055;59.436;24.778;2023-11-21T04:21:13;101902.09;;;0.30;100.00
40908;BME280;51055;59.436;24.778;2023-11-21T04:23:41;101903.75;;;0.34;100.00
40908;BME280;51055;59.436;24.778;2023-11-21T04:26:09;101914.97;;;0.39;100.00
40908;BME280;51055;59.436;24.778;2023-11-21T04:28:36;101915.81;;;0.40;100.00
40908;BME280;51055;59.436;24.778;2023-11-21T04:31:04;101921.03;;;0.40;100.00
40908;BME280;51055;59.436;24.778;2023-11-21T04:33:32;101915.81;;;0.41;100.00
40908;BME280;51055;59.436;24.778;2023-11-21T04:35:59;101916.69;;;0.42;100.00
40908;BME280;51055;59.436;24.778;2023-11-21T04:38:27;101914.13;;;0.39;100.00
40908;BME280;51055;59.436;24.778;2023-11-21T04:40:54;101918.50;;;0.37;100.00
40908;BME280;51055;59.436;24.778;2023-11-21T04:43:22;101927.13;;;0.42;100.00
40908;BME280;51055;59.436;24.778;2023-11-21T04:45:50;101928.91;;;0.38;100.00
40908;BME280;51055;59.436;24.778;2023-11-21T04:48:17;101920.16;;;0.41;100.00
40908;BME280;51055;59.436;24.778;2023-11-21T04:50:44;101920.97;;;0.43;100.00
40908;BME280;51055;59.436;24.778;2023-11-21T04:53:12;101921.91;;;0.42;100.00
40908;BME280;51055;59.436;24.778;2023-11-21T04:55:41;101928.06;;;0.38;100.00
40908;BME280;51055;59.436;24.778;2023-11-21T04:58:09;101933.28;;;0.36;100.00
40908;BME280;51055;59.436;24.778;2023-11-21T05:00:36;101930.78;;;0.32;100.00
40908;BME280;51055;59.436;24.778;2023-11-21T05:03:04;101924.69;;;0.31;100.00
40908;BME280;51055;59.436;24.778;2023-11-21T05:05:33;101925.50;;;0.33;100.00
40908;BME280;51055;59.436;24.778;2023-11-21T05:08:01;101930.72;;;0.33;100.00
40908;BME280;51055;59.436;24.778;2023-11-21T05:10:29;101920.28;;;0.33;100.00
40908;BME280;51055;59.436;24.778;2023-11-21T05:12:57;101928.06;;;0.38;100.00
40908;BME280;51055;59.436;24.778;2023-11-21T05:15:25;101929.78;;;0.37;100.00
40908;BME280;51055;59.436;24.778;2023-11-21T05:17:54;101924.56;;;0.39;100.00
40908;BME280;51055;59.436;24.778;2023-11-21T05:20:22;101928.91;;;0.38;100.00
40908;BME280;51055;59.436;24.778;2023-11-21T05:22:50;101929.72;;;0.42;99.80
40908;BME280;51055;59.436;24.778;2023-11-21T05:25:18;101927.06;;;0.43;99.61
40908;BME280;51055;59.436;24.778;2023-11-21T05:27:46;101934.09;;;0.40;99.03
40908;BME280;51055;59.436;24.778;2023-11-21T05:30:14;101930.59;;;0.42;99.29
40908;BME280;51055;59.436;24.778;2023-11-21T05:32:41;101931.47;;;0.41;99.34
40908;BME280;51055;59.436;24.778;2023-11-21T05:35:14;101938.56;;;0.33;97.44
40908;BME280;51055;59.436;24.778;2023-11-21T05:37:44;101935.94;;;0.33;98.21
40908;BME280;51055;59.436;24.778;2023-11-21T05:40:13;101946.28;;;0.39;97.88
40908;BME280;51055;59.436;24.778;2023-11-21T05:42:41;101946.25;;;0.41;98.16
40908;BME280;51055;59.436;24.778;2023-11-21T05:45:08;101950.56;;;0.43;97.63
40908;BME280;51055;59.436;24.778;2023-11-21T05:47:40;101952.34;;;0.41;96.80
40908;BME280;51055;59.436;24.778;2023-11-21T05:50:09;101949.75;;;0.40;97.36
40908;BME280;51055;59.436;24.778;2023-11-21T05:52:42;101955.75;;;0.45;96.87
40908;BME280;51055;59.436;24.778;2023-11-21T05:55:09;101950.53;;;0.45;96.34
40908;BME280;51055;59.436;24.778;2023-11-21T05:57:38;101960.13;;;0.44;95.40
40908;BME280;51055;59.436;24.778;2023-11-21T06:00:06;101960.94;;;0.48;95.39
40908;BME280;51055;59.436;24.778;2023-11-21T06:02:47;101961.84;;;0.45;94.60
40908;BME280;51055;59.436;24.778;2023-11-21T06:05:17;101968.03;;;0.40;94.21
40908;BME280;51055;59.436;24.778;2023-11-21T06:07:46;101969.00;;;0.34;93.84
40908;BME280;51055;59.436;24.778;2023-11-21T06:10:13;101965.50;;;0.35;93.78
40908;BME280;51055;59.436;24.778;2023-11-21T06:12:41;101967.19;;;0.38;93.33
40908;BME280;51055;59.436;24.778;2023-11-21T06:15:10;101973.22;;;0.41;93.16
40908;BME280;51055;59.436;24.778;2023-11-21T06:17:42;101967.16;;;0.41;93.54
40908;BME280;51055;59.436;24.778;2023-11-21T06:20:10;101968.88;;;0.40;93.84
40908;BME280;51055;59.436;24.778;2023-11-21T06:22:41;101976.72;;;0.42;93.80
40908;BME280;51055;59.436;24.778;2023-11-21T06:25:09;101971.38;;;0.46;93.65
40908;BME280;51055;59.436;24.778;2023-11-21T06:27:38;101969.63;;;0.47;93.95
40908;BME280;51055;59.436;24.778;2023-11-21T06:30:05;101974.00;;;0.46;93.82
40908;BME280;51055;59.436;24.778;2023-11-21T06:32:33;101982.69;;;0.48;94.11
40908;BME280;51055;59.436;24.778;2023-11-21T06:35:02;101972.19;;;0.50;94.14
40908;BME280;51055;59.436;24.778;2023-11-21T06:37:31;101975.66;;;0.52;94.63
40908;BME280;51055;59.436;24.778;2023-11-21T06:39:59;101976.50;;;0.52;94.95
40908;BME280;51055;59.436;24.778;2023-11-21T06:42:27;101974.84;;;0.47;95.74
40908;BME280;51055;59.436;24.778;2023-11-21T06:44:56;101974.91;;;0.45;96.50
40908;BME280;51055;59.436;24.778;2023-11-21T06:47:25;101973.19;;;0.43;96.26
40908;BME280;51055;59.436;24.778;2023-11-21T06:49:52;101977.59;;;0.39;96.22
40908;BME280;51055;59.436;24.778;2023-11-21T06:52:20;101975.97;;;0.34;95.76
40908;BME280;51055;59.436;24.778;2023-11-21T06:54:48;101977.69;;;0.35;95.76
40908;BME280;51055;59.436;24.778;2023-11-21T06:57:17;101984.59;;;0.39;96.44
40908;BME280;51055;59.436;24.778;2023-11-21T06:59:44;101987.03;;;0.46;96.29
40908;BME280;51055;59.436;24.778;2023-11-21T07:02:12;101983.56;;;0.47;96.83
40908;BME280;51055;59.436;24.778;2023-11-21T07:04:39;101982.69;;;0.48;96.51
40908;BME280;51055;59.436;24.778;2023-11-21T07:07:07;101987.09;;;0.45;95.88
40908;BME280;51055;59.436;24.778;2023-11-21T07:09:35;101986.28;;;0.41;95.50
40908;BME280;51055;59.436;24.778;2023-11-21T07:12:02;101988.88;;;0.41;95.37
40908;BME280;51055;59.436;24.778;2023-11-21T07:14:31;101994.09;;;0.41;95.25
40908;BME280;51055;59.436;24.778;2023-11-21T07:16:59;101995.84;;;0.42;94.03
40908;BME280;51055;59.436;24.778;2023-11-21T07:19:26;101999.22;;;0.49;94.72
40908;BME280;51055;59.436;24.778;2023-11-21T07:21:54;101995.56;;;0.56;93.84
40908;BME280;51055;59.436;24.778;2023-11-21T07:24:22;101999.03;;;0.58;93.61
40908;BME280;51055;59.436;24.778;2023-11-21T07:26:53;101999.84;;;0.60;93.42
40908;BME280;51055;59.436;24.778;2023-11-21T07:29:24;102004.16;;;0.63;93.67
40908;BME280;51055;59.436;24.778;2023-11-21T07:31:57;101996.25;;;0.66;93.04
40908;BME280;51055;59.436;24.778;2023-11-21T07:34:24;102004.09;;;0.67;93.29
40908;BME280;51055;59.436;24.778;2023-11-21T07:36:52;101993.56;;;0.72;93.53
40908;BME280;51055;59.436;24.778;2023-11-21T07:39:19;101989.97;;;0.76;93.49
40908;BME280;51055;59.436;24.778;2023-11-21T07:41:47;102003.09;;;0.74;93.19
40908;BME280;51055;59.436;24.778;2023-11-21T07:44:17;102001.34;;;0.75;93.07
40908;BME280;51055;59.436;24.778;2023-11-21T07:46:45;102003.03;;;0.76;93.79
40908;BME280;51055;59.436;24.778;2023-11-21T07:49:13;102010.00;;;0.77;94.22
40908;BME280;51055;59.436;24.778;2023-11-21T07:51:44;102001.22;;;0.79;94.57
40908;BME280;51055;59.436;24.778;2023-11-21T07:54:12;102021.25;;;0.80;94.51
40908;BME280;51055;59.436;24.778;2023-11-21T07:56:39;102015.28;;;0.74;97.06
40908;BME280;51055;59.436;24.778;2023-11-21T07:59:07;102015.22;;;0.77;98.93
40908;BME280;51055;59.436;24.778;2023-11-21T08:01:34;102027.41;;;0.76;100.00
40908;BME280;51055;59.436;24.778;2023-11-21T08:04:02;102034.31;;;0.80;100.00
40908;BME280;51055;59.436;24.778;2023-11-21T08:06:31;102042.13;;;0.82;100.00
40908;BME280;51055;59.436;24.778;2023-11-21T08:09:00;102034.38;;;0.76;100.00
40908;BME280;51055;59.436;24.778;2023-11-21T08:11:27;102037.91;;;0.75;100.00
40908;BME280;51055;59.436;24.778;2023-11-21T08:13:59;102035.53;;;0.61;100.00
40908;BME280;51055;59.436;24.778;2023-11-21T08:16:27;102032.06;;;0.59;100.00
40908;BME280;51055;59.436;24.778;2023-11-21T08:18:55;102030.19;;;0.69;100.00
40908;BME280;51055;59.436;24.778;2023-11-21T08:21:23;102031.13;;;0.65;100.00
40908;BME280;51055;59.436;24.778;2023-11-21T08:23:52;102032.81;;;0.66;100.00
40908;BME280;51055;59.436;24.778;2023-11-21T08:26:21;102034.59;;;0.65;100.00
40908;BME280;51055;59.436;24.778;2023-11-21T08:28:49;102040.75;;;0.60;100.00
40908;BME280;51055;59.436;24.778;2023-11-21T08:31:16;102037.97;;;0.70;100.00
40908;BME280;51055;59.436;24.778;2023-11-21T08:33:44;102044.88;;;0.74;100.00
40908;BME280;51055;59.436;24.778;2023-11-21T08:36:11;102043.94;;;0.78;100.00
40908;BME280;51055;59.436;24.778;2023-11-21T08:38:39;102042.88;;;0.87;100.00
40908;BME280;51055;59.436;24.778;2023-11-21T08:41:08;102042.94;;;0.84;100.00
40908;BME280;51055;59.436;24.778;2023-11-21T08:43:36;102045.69;;;0.76;100.00
40908;BME280;51055;59.436;24.778;2023-11-21T08:46:06;102044.75;;;0.80;100.00
40908;BME280;51055;59.436;24.778;2023-11-21T08:48:36;102051.00;;;0.72;100.00
40908;BME280;51055;59.436;24.778;2023-11-21T08:51:04;102049.34;;;0.66;100.00
40908;BME280;51055;59.436;24.778;2023-11-21T08:53:32;102056.59;;;0.50;100.00
40908;BME280;51055;59.436;24.778;2023-11-21T08:56:00;102061.00;;;0.47;100.00
40908;BME280;51055;59.436;24.778;2023-11-21T08:58:28;102079.38;;;0.42;100.00
40908;BME280;51055;59.436;24.778;2023-11-21T09:00:55;102080.34;;;0.34;100.00
40908;BME280;51055;59.436;24.778;2023-11-21T09:03:23;102083.81;;;0.36;100.00
40908;BME280;51055;59.436;24.778;2023-11-21T09:05:50;102098.59;;;0.35;100.00
40908;BME280;51055;59.436;24.778;2023-11-21T09:08:17;102091.13;;;0.13;100.00
40908;BME280;51055;59.436;24.778;2023-11-21T09:10:45;102093.50;;;0.29;100.00
40908;BME280;51055;59.436;24.778;2023-11-21T09:13:14;102108.25;;;0.30;100.00
40908;BME280;51055;59.436;24.778;2023-11-21T09:15:43;102105.72;;;0.26;100.00
40908;BME280;51055;59.436;24.778;2023-11-21T09:18:13;102107.56;;;0.19;100.00
40908;BME280;51055;59.436;24.778;2023-11-21T09:20:42;102116.34;;;0.12;100.00
40908;BME280;51055;59.436;24.778;2023-11-21T09:23:11;102137.31;;;0.06;99.87
40908;BME280;51055;59.436;24.778;2023-11-21T09:25:39;102120.94;;;-0.05;97.45
40908;BME280;51055;59.436;24.778;2023-11-21T09:28:06;102121.94;;;-0.14;96.37
40908;BME280;51055;59.436;24.778;2023-11-21T09:30:37;102126.38;;;-0.22;92.03
40908;BME280;51055;59.436;24.778;2023-11-21T09:33:05;102128.31;;;-0.39;88.52
40908;BME280;51055;59.436;24.778;2023-11-21T09:35:33;102137.81;;;-0.33;88.62
40908;BME280;51055;59.436;24.778;2023-11-21T09:38:01;102138.00;;;-0.48;86.99
40908;BME280;51055;59.436;24.778;2023-11-21T09:40:32;102137.03;;;-0.41;85.63
40908;BME280;51055;59.436;24.778;2023-11-21T09:43:00;102142.03;;;-0.23;87.04
40908;BME280;51055;59.436;24.778;2023-11-21T09:45:32;102151.44;;;-0.12;86.42
40908;BME280;51055;59.436;24.778;2023-11-21T09:48:01;102156.06;;;-0.33;84.99
40908;BME280;51055;59.436;24.778;2023-11-21T09:50:29;102156.78;;;-0.22;85.49
40908;BME280;51055;59.436;24.778;2023-11-21T09:53:17;102155.81;;;-0.14;84.78
40908;BME280;51055;59.436;24.778;2023-11-21T09:55:46;102157.63;;;-0.19;84.35
40908;BME280;51055;59.436;24.778;2023-11-21T09:58:14;102162.19;;;-0.37;84.11
40908;BME280;51055;59.436;24.778;2023-11-21T10:00:42;102164.84;;;-0.40;84.69
40908;BME280;51055;59.436;24.778;2023-11-21T10:03:10;102166.44;;;-0.27;83.91
40908;BME280;51055;59.436;24.778;2023-11-21T10:05:39;102169.81;;;-0.21;82.29
40908;BME280;51055;59.436;24.778;2023-11-21T10:08:07;102190.00;;;-0.38;82.25
40908;BME280;51055;59.436;24.778;2023-11-21T10:10:37;102174.44;;;-0.45;83.47
40908;BME280;51055;59.436;24.778;2023-11-21T10:13:06;102187.38;;;-0.36;83.11
40908;BME280;51055;59.436;24.778;2023-11-21T10:15:34;102182.22;;;-0.39;83.14
40908;BME280;51055;59.436;24.778;2023-11-21T10:18:03;102179.53;;;-0.35;83.22
40908;BME280;51055;59.436;24.778;2023-11-21T10:20:31;102179.56;;;-0.38;82.49
40908;BME280;51055;59.436;24.778;2023-11-21T10:22:59;102190.03;;;-0.42;82.34
40908;BME280;51055;59.436;24.778;2023-11-21T10:25:32;102183.91;;;-0.38;82.31
40908;BME280;51055;59.436;24.778;2023-11-21T10:28:01;102199.63;;;-0.44;80.49
40908;BME280;51055;59.436;24.778;2023-11-21T10:30:32;102197.06;;;-0.47;79.75
40908;BME280;51055;59.436;24.778;2023-11-21T10:33:01;102197.00;;;-0.41;79.78
40908;BME280;51055;59.436;24.778;2023-11-21T10:35:39;102190.94;;;-0.45;79.63
40908;BME280;51055;59.436;24.778;2023-11-21T10:38:09;102193.47;;;-0.39;78.29
40908;BME280;51055;59.436;24.778;2023-11-21T10:40:38;102183.22;;;-0.52;75.90
40908;BME280;51055;59.436;24.778;2023-11-21T10:43:08;102192.69;;;-0.45;76.40
40908;BME280;51055;59.436;24.778;2023-11-21T10:45:37;102188.25;;;-0.39;76.95
40908;BME280;51055;59.436;24.778;2023-11-21T10:48:05;102191.78;;;-0.40;75.23
40908;BME280;51055;59.436;24.778;2023-11-21T10:50:34;102198.84;;;-0.49;74.69
40908;BME280;51055;59.436;24.778;2023-11-21T10:53:02;102199.69;;;-0.52;75.58
40908;BME280;51055;59.436;24.778;2023-11-21T10:55:32;102192.75;;;-0.50;75.51
40908;BME280;51055;59.436;24.778;2023-11-21T10:58:01;102198.88;;;-0.52;75.93
40908;BME280;51055;59.436;24.778;2023-11-21T11:00:30;102202.31;;;-0.52;74.52
40908;BME280;51055;59.436;24.778;2023-11-21T11:02:58;102199.63;;;-0.44;74.32
40908;BME280;51055;59.436;24.778;2023-11-21T11:05:27;102203.13;;;-0.48;73.07
40908;BME280;51055;59.436;24.778;2023-11-21T11:07:59;102210.94;;;-0.45;72.54
40908;BME280;51055;59.436;24.778;2023-11-21T11:10:28;102212.56;;;-0.34;72.81
40908;BME280;51055;59.436;24.778;2023-11-21T11:12:59;102204.06;;;-0.56;73.16
40908;BME280;51055;59.436;24.778;2023-11-21T11:15:27;102199.69;;;-0.52;73.61
40908;BME280;51055;59.436;24.778;2023-11-21T11:17:54;102201.41;;;-0.46;72.56
40908;BME280;51055;59.436;24.778;2023-11-21T11:20:27;102214.50;;;-0.52;72.68
40908;BME280;51055;59.436;24.778;2023-11-21T11:23:13;102221.50;;;-0.62;72.20
40908;BME280;51055;59.436;24.778;2023-11-21T11:38:53;102234.44;;;-0.50;70.26
40908;BME280;51055;59.436;24.778;2023-11-21T11:41:27;102228.34;;;-0.46;70.31
40908;BME280;51055;59.436;24.778;2023-11-21T11:43:55;102232.69;;;-0.46;70.14
40908;BME280;51055;59.436;24.778;2023-11-21T11:49:09;102237.81;;;-0.42;69.44
40908;BME280;51055;59.436;24.778;2023-11-21T11:51:37;102244.72;;;-0.35;69.35
40908;BME280;51055;59.436;24.778;2023-11-21T11:54:05;102241.56;;;-0.66;68.41
40908;BME280;51055;59.436;24.778;2023-11-21T11:56:34;102244.81;;;-0.45;68.05
40908;BME280;51055;59.436;24.778;2023-11-21T11:59:03;102242.41;;;-0.64;68.83
40908;BME280;51055;59.436;24.778;2023-11-21T12:01:32;102251.97;;;-0.69;68.88
40908;BME280;51055;59.436;24.778;2023-11-21T12:06:47;102258.97;;;-0.74;68.86
40908;BME280;51055;59.436;24.778;2023-11-21T12:09:20;102268.56;;;-0.76;68.48
40908;BME280;51055;59.436;24.778;2023-11-21T12:11:51;102270.47;;;-0.99;67.11
40908;BME280;51055;59.436;24.778;2023-11-21T12:14:19;102271.28;;;-0.91;68.69
40908;BME280;51055;59.436;24.778;2023-11-21T12:16:47;102278.28;;;-1.00;67.73
40908;BME280;51055;59.436;24.778;2023-11-21T12:19:15;102282.59;;;-0.93;66.19
40908;BME280;51055;59.436;24.778;2023-11-21T12:21:42;102280.03;;;-1.01;66.78
40908;BME280;51055;59.436;24.778;2023-11-21T12:24:11;102285.25;;;-0.99;66.24
40908;BME280;51055;59.436;24.778;2023-11-21T12:26:41;102287.81;;;-0.95;66.95
40908;BME280;51055;59.436;24.778;2023-11-21T12:29:09;102288.78;;;-1.11;66.94
40908;BME280;51055;59.436;24.778;2023-11-21T12:31:38;102290.56;;;-1.16;65.70
40908;BME280;51055;59.436;24.778;2023-11-21T12:34:06;102295.84;;;-1.30;65.46
40908;BME280;51055;59.436;24.778;2023-11-21T12:36:34;102290.63;;;-1.28;66.58
40908;BME280;51055;59.436;24.778;2023-11-21T12:39:02;102288.78;;;-1.14;65.51
40908;BME280;51055;59.436;24.778;2023-11-21T12:41:31;102291.38;;;-1.10;65.32
40908;BME280;51055;59.436;24.778;2023-11-21T12:43:58;102298.25;;;-0.95;65.45
40908;BME280;51055;59.436;24.778;2023-11-21T12:46:26;102306.06;;;-0.99;66.28
40908;BME280;51055;59.436;24.778;2023-11-21T12:48:56;102319.00;;;-0.87;65.31
40908;BME280;51055;59.436;24.778;2023-11-21T12:51:25;102320.09;;;-1.19;64.44
40908;BME280;51055;59.436;24.778;2023-11-21T12:53:52;102325.31;;;-1.22;64.81
40908;BME280;51055;59.436;24.778;2023-11-21T12:56:21;102327.00;;;-1.16;65.82
40908;BME280;51055;59.436;24.778;2023-11-21T12:58:50;102333.91;;;-1.11;64.80
40908;BME280;51055;59.436;24.778;2023-11-21T13:01:21;102338.31;;;-1.22;65.42
40908;BME280;51055;59.436;24.778;2023-11-21T13:03:54;102338.25;;;-1.11;65.34
40908;BME280;51055;59.436;24.778;2023-11-21T13:06:22;102332.97;;;-0.99;65.91
40908;BME280;51055;59.436;24.778;2023-11-21T13:08:51;102334.69;;;-0.95;65.40